createdAt,value
2018-01-05T00:00:58.845Z,8.00
2018-01-05T00:02:01.779Z,7.71
2018-01-05T00:03:04.698Z,7.81
2018-01-05T00:04:07.713Z,7.94
2018-01-05T00:05:10.612Z,7.93
2018-01-05T00:06:13.938Z,7.99
2018-01-05T00:07:16.929Z,8.09
2018-01-05T00:08:19.869Z,7.81
2018-01-05T00:09:22.814Z,7.85
2018-01-05T00:10:25.842Z,7.91
2018-01-05T00:11:28.749Z,8.02
2018-01-05T00:12:31.948Z,7.95
2018-01-05T00:13:34.853Z,7.94
2018-01-05T00:14:37.849Z,7.72
2018-01-05T00:15:40.761Z,7.83
2018-01-05T00:16:43.642Z,7.82
2018-01-05T00:17:46.570Z,7.80
2018-01-05T00:18:49.736Z,7.86
2018-01-05T00:19:52.699Z,7.75
2018-01-05T00:20:55.755Z,7.73
2018-01-05T00:21:58.713Z,7.66
2018-01-05T00:23:01.775Z,7.93
2018-01-05T00:24:04.710Z,7.84
2018-01-05T00:25:08.010Z,7.89
2018-01-05T00:26:10.906Z,7.82
2018-01-05T00:27:13.836Z,7.81
2018-01-05T00:28:16.795Z,7.71
2018-01-05T00:29:19.758Z,7.86
2018-01-05T00:30:23.300Z,7.93
2018-01-05T00:31:26.502Z,7.79
2018-01-05T00:32:29.525Z,7.69
2018-01-05T00:33:32.558Z,7.74
2018-01-05T00:34:36.259Z,7.69
2018-01-05T00:35:39.251Z,7.97
2018-01-05T00:36:42.196Z,7.60
2018-01-05T00:37:45.404Z,7.54
2018-01-05T00:38:48.348Z,7.65
2018-01-05T00:39:51.197Z,7.82
2018-01-05T00:40:54.110Z,7.59
2018-01-05T00:41:57.047Z,7.80
2018-01-05T00:43:00.004Z,7.72
2018-01-05T00:44:03.239Z,7.56
2018-01-05T00:45:06.178Z,7.52
2018-01-05T00:46:09.129Z,7.81
2018-01-05T00:47:12.150Z,7.67
2018-01-05T00:48:15.074Z,7.64
2018-01-05T00:49:18.038Z,7.75
2018-01-05T00:50:21.310Z,7.48
2018-01-05T00:51:24.248Z,7.78
2018-01-05T00:52:27.721Z,7.72
2018-01-05T00:53:30.584Z,7.43
2018-01-05T00:54:33.454Z,7.83
2018-01-05T00:55:36.388Z,7.58
2018-01-05T00:56:39.713Z,7.60
2018-01-05T00:57:42.712Z,7.55
2018-01-05T00:58:45.828Z,7.61
2018-01-05T00:59:48.810Z,7.72
2018-01-05T01:00:51.848Z,7.68
2018-01-05T01:01:54.829Z,7.61
2018-01-05T01:02:58.275Z,7.36
2018-01-05T01:04:01.254Z,7.65
2018-01-05T01:05:04.442Z,7.70
2018-01-05T01:06:07.364Z,7.46
2018-01-05T01:07:10.344Z,7.52
2018-01-05T01:08:13.447Z,7.45
2018-01-05T01:09:16.675Z,7.50
2018-01-05T01:10:19.612Z,7.35
2018-01-05T01:11:22.541Z,7.41
2018-01-05T01:12:25.537Z,7.38
2018-01-05T01:13:28.503Z,7.42
2018-01-05T01:14:31.482Z,7.45
2018-01-05T01:15:34.611Z,7.52
2018-01-05T01:16:37.441Z,7.48
2018-01-05T01:17:40.320Z,7.42
2018-01-05T01:18:43.133Z,7.28
2018-01-05T01:19:46.096Z,7.38
2018-01-05T01:20:49.027Z,7.30
2018-01-05T01:21:52.224Z,7.55
2018-01-05T01:22:55.142Z,7.58
2018-01-05T01:23:58.579Z,7.31
2018-01-05T01:25:02.582Z,7.22
2018-01-05T01:26:05.531Z,7.48
2018-01-05T01:27:08.548Z,7.46
2018-01-05T01:28:12.112Z,7.44
2018-01-05T01:29:14.944Z,7.54
2018-01-05T01:30:17.787Z,7.28
2018-01-05T01:31:20.636Z,7.40
2018-01-05T01:32:23.483Z,7.43
2018-01-05T01:33:26.340Z,7.31
2018-01-05T01:34:29.456Z,7.61
2018-01-05T01:35:32.295Z,7.39
2018-01-05T01:36:35.126Z,7.40
2018-01-05T01:37:38.012Z,7.31
2018-01-05T01:38:40.825Z,7.31
2018-01-05T01:39:43.670Z,7.40
2018-01-05T01:40:46.820Z,7.20
2018-01-05T01:41:49.646Z,7.55
2018-01-05T01:42:52.616Z,7.38
2018-01-05T01:43:55.455Z,7.28
2018-01-05T01:44:58.277Z,7.43
2018-01-05T01:46:01.104Z,7.63
2018-01-05T01:47:04.263Z,7.45
2018-01-05T01:48:07.135Z,7.58
2018-01-05T01:49:10.063Z,7.29
2018-01-05T01:50:12.995Z,7.38
2018-01-05T01:51:15.928Z,7.37
2018-01-05T01:52:18.904Z,7.39
2018-01-05T01:53:22.122Z,7.39
2018-01-05T01:54:25.044Z,7.55
2018-01-05T01:55:27.919Z,7.50
2018-01-05T01:56:30.721Z,7.39
2018-01-05T01:57:34.427Z,7.30
2018-01-05T01:58:37.911Z,7.31
2018-01-05T01:59:40.957Z,7.54
2018-01-05T02:00:43.741Z,7.31
2018-01-05T02:01:46.533Z,7.41
2018-01-05T02:02:49.341Z,7.28
2018-01-05T02:03:52.231Z,7.44
2018-01-05T02:04:55.038Z,7.46
2018-01-05T02:05:58.284Z,7.44
2018-01-05T02:07:01.202Z,7.31
2018-01-05T02:08:04.156Z,7.28
2018-01-05T02:09:07.045Z,7.38
2018-01-05T02:10:09.912Z,7.39
2018-01-05T02:11:12.742Z,7.36
2018-01-05T02:12:15.931Z,7.45
2018-01-05T02:13:18.884Z,7.19
2018-01-05T02:14:21.801Z,7.56
2018-01-05T02:15:24.710Z,7.24
2018-01-05T02:16:27.620Z,7.24
2018-01-05T02:17:30.937Z,7.54
2018-01-05T02:18:34.146Z,7.36
2018-01-05T02:19:37.074Z,7.40
2018-01-05T02:20:40.014Z,7.41
2018-01-05T02:21:42.959Z,7.27
2018-01-05T02:22:45.901Z,7.36
2018-01-05T02:23:48.806Z,7.34
2018-01-05T02:24:52.068Z,7.60
2018-01-05T02:25:54.995Z,7.26
2018-01-05T02:26:58.063Z,7.12
2018-01-05T02:28:00.989Z,7.16
2018-01-05T02:29:03.894Z,7.16
2018-01-05T02:30:07.348Z,7.17
2018-01-05T02:31:10.555Z,7.20
2018-01-05T02:32:13.564Z,7.25
2018-01-05T02:33:16.480Z,7.17
2018-01-05T02:34:19.396Z,7.09
2018-01-05T02:35:22.344Z,7.13
2018-01-05T02:36:25.265Z,7.18
2018-01-05T02:37:28.437Z,7.03
2018-01-05T02:38:31.368Z,7.18
2018-01-05T02:39:34.366Z,7.15
2018-01-05T02:40:37.340Z,7.09
2018-01-05T02:41:40.262Z,7.32
2018-01-05T02:42:43.125Z,7.31
2018-01-05T02:43:46.766Z,7.32
2018-01-05T02:44:49.707Z,7.22
2018-01-05T02:45:52.620Z,7.21
2018-01-05T02:46:55.590Z,7.41
2018-01-05T02:47:58.499Z,7.16
2018-01-05T02:49:01.424Z,7.36
2018-01-05T02:50:04.642Z,7.28
2018-01-05T02:51:07.551Z,7.18
2018-01-05T02:52:10.472Z,7.11
2018-01-05T02:53:13.418Z,7.33
2018-01-05T02:54:16.388Z,7.23
2018-01-05T02:55:19.355Z,7.16
2018-01-05T02:56:22.541Z,7.17
2018-01-05T02:57:25.564Z,7.12
2018-01-05T02:58:28.478Z,7.31
2018-01-05T02:59:31.424Z,7.22
2018-01-05T03:00:34.380Z,7.04
2018-01-05T03:01:37.315Z,7.23
2018-01-05T03:02:40.554Z,7.19
2018-01-05T03:03:43.469Z,7.31
2018-01-05T03:04:46.422Z,7.24
2018-01-05T03:05:49.344Z,7.36
2018-01-05T03:06:52.247Z,7.39
2018-01-05T03:07:55.047Z,7.47
2018-01-05T03:08:58.225Z,7.41
2018-01-05T03:10:01.203Z,7.53
2018-01-05T03:11:04.148Z,7.37
2018-01-05T03:12:07.100Z,7.22
2018-01-05T03:13:10.021Z,7.52
2018-01-05T03:14:13.060Z,7.51
2018-01-05T03:15:16.272Z,7.38
2018-01-05T03:16:19.232Z,7.42
2018-01-05T03:17:22.183Z,7.25
2018-01-05T03:18:25.114Z,7.37
2018-01-05T03:19:28.283Z,7.61
2018-01-05T03:20:31.278Z,7.65
2018-01-05T03:21:34.193Z,7.47
2018-01-05T03:22:37.123Z,7.39
2018-01-05T03:23:40.075Z,7.48
2018-01-05T03:24:43.072Z,7.43
2018-01-05T03:25:46.004Z,7.33
2018-01-05T03:26:49.220Z,7.39
2018-01-05T03:27:52.152Z,7.58
2018-01-05T03:28:55.070Z,7.62
2018-01-05T03:29:58.034Z,7.43
2018-01-05T03:31:00.922Z,7.47
2018-01-05T03:32:03.833Z,7.48
2018-01-05T03:33:07.085Z,7.58
2018-01-05T03:34:09.983Z,7.24
2018-01-05T03:35:12.918Z,7.59
2018-01-05T03:36:16.522Z,7.52
2018-01-05T03:37:19.369Z,7.52
2018-01-05T03:38:22.244Z,7.56
2018-01-05T03:39:25.353Z,7.19
2018-01-05T03:40:28.193Z,7.38
2018-01-05T03:41:31.465Z,7.32
2018-01-05T03:42:34.340Z,7.03
2018-01-05T03:43:37.192Z,7.04
2018-01-05T03:44:39.956Z,7.13
2018-01-05T03:45:43.137Z,7.22
2018-01-05T03:46:45.996Z,6.96
2018-01-05T03:47:48.850Z,7.13
2018-01-05T03:48:51.732Z,7.16
2018-01-05T03:49:54.596Z,7.07
2018-01-05T03:50:57.571Z,7.00
2018-01-05T03:52:01.209Z,6.85
2018-01-05T03:53:04.159Z,6.74
2018-01-05T03:54:07.100Z,6.72
2018-01-05T03:55:10.022Z,6.73
2018-01-05T03:56:13.191Z,6.81
2018-01-05T03:57:16.122Z,6.90
2018-01-05T03:58:19.321Z,6.67
2018-01-05T03:59:22.219Z,6.62
2018-01-05T04:00:25.159Z,6.40
2018-01-05T04:01:28.128Z,6.40
2018-01-05T04:02:31.057Z,6.57
2018-01-05T04:03:33.972Z,6.60
2018-01-05T04:04:37.171Z,6.35
2018-01-05T04:05:40.001Z,6.37
2018-01-05T04:06:42.832Z,6.37
2018-01-05T04:07:45.678Z,6.35
2018-01-05T04:08:48.509Z,6.27
2018-01-05T04:09:51.376Z,6.25
2018-01-05T04:10:54.509Z,6.51
2018-01-05T04:11:57.438Z,6.53
2018-01-05T04:13:00.356Z,6.57
2018-01-05T04:14:03.274Z,6.59
2018-01-05T04:15:06.234Z,6.52
2018-01-05T04:16:10.300Z,6.48
2018-01-05T04:17:13.524Z,6.68
2018-01-05T04:18:16.458Z,6.37
2018-01-05T04:19:19.274Z,6.63
2018-01-05T04:20:22.132Z,6.56
2018-01-05T04:21:26.117Z,6.49
2018-01-05T04:22:28.935Z,6.32
2018-01-05T04:23:32.068Z,6.34
2018-01-05T04:24:34.988Z,6.24
2018-01-05T04:25:37.922Z,6.34
2018-01-05T04:26:40.849Z,6.46
2018-01-05T04:27:43.794Z,6.52
2018-01-05T04:28:46.739Z,6.51
2018-01-05T04:29:49.910Z,6.60
2018-01-05T04:30:52.810Z,6.47
2018-01-05T04:31:55.780Z,6.42
2018-01-05T04:32:58.682Z,6.50
2018-01-05T04:34:01.611Z,6.35
2018-01-05T04:35:04.505Z,6.33
2018-01-05T04:36:08.603Z,6.45
2018-01-05T04:37:11.541Z,6.33
2018-01-05T04:38:14.450Z,6.22
2018-01-05T04:39:17.440Z,6.30
2018-01-05T04:40:20.326Z,6.37
2018-01-05T04:41:23.249Z,6.13
2018-01-05T04:42:26.496Z,6.24
2018-01-05T04:43:29.461Z,6.31
2018-01-05T04:44:32.370Z,6.34
2018-01-05T04:45:35.364Z,6.32
2018-01-05T04:46:38.286Z,6.34
2018-01-05T04:47:41.186Z,6.21
2018-01-05T04:48:44.961Z,6.38
2018-01-05T04:49:47.892Z,6.14
2018-01-05T04:50:50.740Z,6.03
2018-01-05T04:51:53.593Z,6.07
2018-01-05T04:52:56.467Z,6.15
2018-01-05T04:53:59.329Z,6.23
2018-01-05T04:55:02.570Z,6.24
2018-01-05T04:56:05.539Z,6.44
2018-01-05T04:57:08.479Z,6.38
2018-01-05T04:58:11.410Z,6.38
2018-01-05T04:59:14.322Z,6.60
2018-01-05T05:00:17.253Z,6.53
2018-01-05T05:01:20.772Z,6.14
2018-01-05T05:02:23.615Z,6.06
2018-01-05T05:03:26.477Z,6.29
2018-01-05T05:04:29.401Z,6.22
2018-01-05T05:05:32.271Z,6.37
2018-01-05T05:06:35.210Z,6.56
2018-01-05T05:07:38.471Z,6.40
2018-01-05T05:08:41.397Z,6.63
2018-01-05T05:09:44.325Z,6.34
2018-01-05T05:10:47.247Z,6.60
2018-01-05T05:11:50.259Z,6.41
2018-01-05T05:12:53.286Z,6.67
2018-01-05T05:13:56.541Z,6.43
2018-01-05T05:14:59.431Z,6.72
2018-01-05T05:16:02.401Z,6.72
2018-01-05T05:17:05.330Z,6.61
2018-01-05T05:18:08.293Z,6.64
2018-01-05T05:19:11.199Z,6.62
2018-01-05T05:20:14.433Z,6.82
2018-01-05T05:21:17.379Z,6.84
2018-01-05T05:22:20.324Z,6.79
2018-01-05T05:23:23.255Z,6.89
2018-01-05T05:24:26.232Z,7.01
2018-01-05T05:25:29.202Z,6.76
2018-01-05T05:26:32.409Z,6.78
2018-01-05T05:27:35.359Z,6.77
2018-01-05T05:28:38.581Z,6.85
2018-01-05T05:29:42.250Z,7.10
2018-01-05T05:30:45.992Z,6.90
2018-01-05T05:31:49.061Z,6.80
2018-01-05T05:32:52.412Z,6.98
2018-01-05T05:33:55.369Z,6.97
2018-01-05T05:34:58.288Z,6.82
2018-01-05T05:36:01.160Z,6.87
2018-01-05T05:37:03.988Z,7.00
2018-01-05T05:38:06.753Z,6.98
2018-01-05T05:39:09.803Z,7.17
2018-01-05T05:40:12.608Z,7.16
2018-01-05T05:41:15.384Z,7.37
2018-01-05T05:42:18.431Z,7.10
2018-01-05T05:43:21.212Z,6.97
2018-01-05T05:44:24.044Z,7.03
2018-01-05T05:45:27.192Z,7.06
2018-01-05T05:46:30.029Z,7.17
2018-01-05T05:47:32.862Z,7.35
2018-01-05T05:48:35.775Z,7.34
2018-01-05T05:49:38.587Z,7.37
2018-01-05T05:50:41.411Z,7.47
2018-01-05T05:51:44.675Z,7.26
2018-01-05T05:52:47.500Z,7.17
2018-01-05T05:53:50.431Z,7.25
2018-01-05T05:54:53.383Z,7.21
2018-01-05T05:55:56.352Z,7.25
2018-01-05T05:56:59.215Z,7.18
2018-01-05T05:58:02.393Z,7.26
2018-01-05T05:59:05.242Z,7.27
2018-01-05T06:00:08.178Z,7.50
2018-01-05T06:01:11.064Z,7.26
2018-01-05T06:02:14.947Z,7.62
2018-01-05T06:03:17.872Z,7.48
2018-01-05T06:04:21.259Z,7.37
2018-01-05T06:05:24.224Z,7.36
2018-01-05T06:06:27.095Z,7.40
2018-01-05T06:07:29.954Z,7.39
2018-01-05T06:08:32.818Z,7.53
2018-01-05T06:09:35.680Z,7.45
2018-01-05T06:10:38.851Z,7.45
2018-01-05T06:11:41.758Z,7.68
2018-01-05T06:12:44.680Z,7.47
2018-01-05T06:13:47.592Z,7.46
2018-01-05T06:14:50.526Z,7.38
2018-01-05T06:15:53.426Z,7.59
2018-01-05T06:16:56.637Z,7.57
2018-01-05T06:17:59.583Z,7.63
2018-01-05T06:19:02.501Z,7.40
2018-01-05T06:20:05.422Z,7.53
2018-01-05T06:21:08.333Z,7.57
2018-01-05T06:22:11.290Z,7.48
2018-01-05T06:23:14.510Z,7.41
2018-01-05T06:24:17.418Z,7.48
2018-01-05T06:25:20.331Z,7.50
2018-01-05T06:26:23.242Z,7.47
2018-01-05T06:27:26.236Z,7.45
2018-01-05T06:28:29.095Z,7.64
2018-01-05T06:29:32.382Z,7.34
2018-01-05T06:30:35.331Z,7.47
2018-01-05T06:31:38.294Z,7.42
2018-01-05T06:32:41.238Z,7.42
2018-01-05T06:33:44.187Z,7.42
2018-01-05T06:34:47.120Z,7.33
2018-01-05T06:35:50.269Z,7.38
2018-01-05T06:36:53.132Z,7.45
2018-01-05T06:37:56.290Z,7.47
2018-01-05T06:38:59.222Z,7.39
2018-01-05T06:40:02.050Z,7.42
2018-01-05T06:41:05.074Z,7.29
2018-01-05T06:42:09.138Z,7.26
2018-01-05T06:43:12.090Z,7.24
2018-01-05T06:44:15.007Z,7.22
2018-01-05T06:45:20.559Z,7.28
2018-01-05T06:46:23.493Z,7.20
2018-01-05T06:47:26.411Z,7.17
2018-01-05T06:48:29.643Z,7.41
2018-01-05T06:49:32.592Z,7.35
2018-01-05T06:50:35.540Z,7.52
2018-01-05T06:51:38.452Z,7.48
2018-01-05T06:52:41.384Z,7.35
2018-01-05T06:53:44.344Z,7.30
2018-01-05T06:54:47.576Z,7.42
2018-01-05T06:55:50.583Z,7.42
2018-01-05T06:56:53.570Z,7.53
2018-01-05T06:57:56.513Z,7.28
2018-01-05T06:58:59.516Z,7.30
2018-01-05T07:00:02.467Z,7.53
2018-01-05T07:01:05.758Z,7.34
2018-01-05T07:02:08.718Z,7.39
2018-01-05T07:03:11.642Z,7.60
2018-01-05T07:04:14.657Z,7.59
2018-01-05T07:05:17.635Z,7.54
2018-01-05T07:06:20.559Z,7.44
2018-01-05T07:07:23.773Z,7.63
2018-01-05T07:08:26.721Z,7.63
2018-01-05T07:09:29.707Z,7.41
2018-01-05T07:10:32.627Z,7.57
2018-01-05T07:11:35.570Z,7.52
2018-01-05T07:12:39.452Z,7.55
2018-01-05T07:13:42.733Z,7.49
2018-01-05T07:14:45.672Z,7.46
2018-01-05T07:15:48.723Z,7.58
2018-01-05T07:16:53.347Z,7.52
2018-01-05T07:17:56.297Z,7.51
2018-01-05T07:18:59.539Z,7.45
2018-01-05T07:20:02.396Z,7.68
2018-01-05T07:21:05.369Z,7.59
2018-01-05T07:22:08.273Z,7.78
2018-01-05T07:23:11.219Z,7.67
2018-01-05T07:24:14.171Z,7.62
2018-01-05T07:25:17.486Z,7.70
2018-01-05T07:26:20.416Z,7.84
2018-01-05T07:27:23.628Z,7.57
2018-01-05T07:28:26.551Z,7.73
2018-01-05T07:29:30.347Z,7.65
2018-01-05T07:30:33.272Z,7.72
2018-01-05T07:31:36.595Z,7.80
2018-01-05T07:32:39.570Z,7.71
2018-01-05T07:33:42.511Z,7.59
2018-01-05T07:34:45.513Z,7.55
2018-01-05T07:35:48.436Z,7.55
2018-01-05T07:36:51.455Z,7.72
2018-01-05T07:37:54.674Z,7.80
2018-01-05T07:38:57.589Z,7.97
2018-01-05T07:40:00.510Z,7.87
2018-01-05T07:41:03.430Z,7.76
2018-01-05T07:42:06.401Z,7.78
2018-01-05T07:43:09.302Z,7.92
2018-01-05T07:44:12.519Z,7.84
2018-01-05T07:45:15.450Z,7.80
2018-01-05T07:46:18.397Z,7.86
2018-01-05T07:47:21.862Z,8.06
2018-01-05T07:48:24.874Z,8.00
2018-01-05T07:49:27.780Z,7.85
2018-01-05T07:50:31.126Z,7.97
2018-01-05T07:51:34.018Z,7.82
2018-01-05T07:52:36.970Z,7.95
2018-01-05T07:53:39.882Z,7.79
2018-01-05T07:54:42.794Z,7.98
2018-01-05T07:55:45.729Z,7.90
2018-01-05T07:56:48.991Z,7.91
2018-01-05T07:57:51.919Z,7.80
2018-01-05T07:58:54.819Z,7.89
2018-01-05T07:59:57.741Z,7.98
2018-01-05T08:01:00.686Z,7.90
2018-01-05T08:02:03.642Z,7.98
2018-01-05T08:03:06.863Z,8.22
2018-01-05T08:04:09.799Z,7.86
2018-01-05T08:05:12.696Z,7.87
2018-01-05T08:06:15.678Z,7.92
2018-01-05T08:07:18.632Z,7.94
2018-01-05T08:08:21.502Z,7.96
2018-01-05T08:09:24.365Z,7.94
2018-01-05T08:10:27.276Z,7.91
2018-01-05T08:11:30.175Z,7.90
2018-01-05T08:12:33.073Z,8.16
2018-01-05T08:13:36.053Z,7.85
2018-01-05T08:14:39.263Z,7.91
2018-01-05T08:15:42.131Z,7.89
2018-01-05T08:16:45.062Z,8.00
2018-01-05T08:17:47.927Z,7.95
2018-01-05T08:18:50.846Z,8.03
2018-01-05T08:19:53.782Z,8.17
2018-01-05T08:20:57.221Z,8.20
2018-01-05T08:22:00.187Z,7.96
2018-01-05T08:23:03.133Z,7.85
2018-01-05T08:24:06.381Z,7.98
2018-01-05T08:25:09.397Z,8.05
2018-01-05T08:26:12.321Z,8.06
2018-01-05T08:27:15.742Z,7.97
2018-01-05T08:28:20.426Z,8.09
2018-01-05T08:29:24.011Z,8.03
2018-01-05T08:30:27.178Z,8.09
2018-01-05T08:31:30.173Z,8.06
2018-01-05T08:32:33.119Z,8.12
2018-01-05T08:33:36.453Z,8.02
2018-01-05T08:34:39.408Z,8.17
2018-01-05T08:35:42.333Z,8.25
2018-01-05T08:36:45.296Z,8.27
2018-01-05T08:37:48.217Z,8.02
2018-01-05T08:38:51.175Z,8.09
2018-01-05T08:39:54.460Z,7.99
2018-01-05T08:40:57.569Z,8.27
2018-01-05T08:42:01.386Z,8.07
2018-01-05T08:43:04.349Z,8.08
2018-01-05T08:44:07.391Z,8.12
2018-01-05T08:45:10.332Z,8.30
2018-01-05T08:46:13.290Z,8.06
2018-01-05T08:47:17.556Z,8.07
2018-01-05T08:48:20.521Z,8.20
2018-01-05T08:49:23.461Z,8.19
2018-01-05T08:50:26.511Z,8.37
2018-01-05T08:51:29.729Z,8.33
2018-01-05T08:52:32.786Z,8.09
2018-01-05T08:53:35.768Z,8.10
2018-01-05T08:54:38.708Z,7.96
2018-01-05T08:55:41.644Z,8.08
2018-01-05T08:56:44.627Z,7.98
2018-01-05T08:57:47.844Z,8.35
2018-01-05T08:58:50.851Z,8.09
2018-01-05T08:59:53.799Z,8.08
2018-01-05T09:00:56.774Z,8.11
2018-01-05T09:01:59.727Z,8.22
2018-01-05T09:03:02.668Z,8.11
2018-01-05T09:04:05.884Z,7.99
2018-01-05T09:05:08.856Z,7.83
2018-01-05T09:06:11.819Z,7.92
2018-01-05T09:07:14.746Z,7.99
2018-01-05T09:08:17.974Z,8.14
2018-01-05T09:09:20.934Z,8.04
2018-01-05T09:10:24.262Z,7.96
2018-01-05T09:11:27.476Z,7.90
2018-01-05T09:12:30.460Z,7.90
2018-01-05T09:13:33.393Z,7.93
2018-01-05T09:14:36.348Z,8.10
2018-01-05T09:15:39.317Z,8.05
2018-01-05T09:16:42.769Z,8.03
2018-01-05T09:17:45.726Z,8.18
2018-01-05T09:18:48.702Z,7.98
2018-01-05T09:19:51.709Z,7.79
2018-01-05T09:20:55.120Z,8.13
2018-01-05T09:21:58.749Z,8.23
2018-01-05T09:23:02.258Z,8.03
2018-01-05T09:24:05.198Z,8.11
2018-01-05T09:25:08.221Z,8.09
2018-01-05T09:26:11.159Z,8.06
2018-01-05T09:27:14.113Z,8.30
2018-01-05T09:28:17.094Z,7.94
2018-01-05T09:29:20.359Z,8.05
2018-01-05T09:30:23.317Z,7.97
2018-01-05T09:31:26.338Z,8.04
2018-01-05T09:32:29.314Z,8.13
2018-01-05T09:33:33.205Z,7.92
2018-01-05T09:34:37.129Z,8.07
2018-01-05T09:35:40.471Z,8.00
2018-01-05T09:36:43.446Z,8.11
2018-01-05T09:37:46.387Z,7.88
2018-01-05T09:38:49.307Z,8.12
2018-01-05T09:39:52.249Z,8.30
2018-01-05T09:40:55.176Z,7.99
2018-01-05T09:41:58.523Z,8.08
2018-01-05T09:43:01.500Z,7.96
2018-01-05T09:44:04.477Z,7.88
2018-01-05T09:45:07.410Z,7.87
2018-01-05T09:46:10.344Z,7.90
2018-01-05T09:47:13.277Z,7.95
2018-01-05T09:48:16.507Z,7.98
2018-01-05T09:49:19.439Z,8.15
2018-01-05T09:50:22.355Z,8.03
2018-01-05T09:51:25.299Z,8.01
2018-01-05T09:52:28.235Z,7.81
2018-01-05T09:53:31.136Z,8.13
2018-01-05T09:54:34.275Z,7.91
2018-01-05T09:55:37.207Z,7.94
2018-01-05T09:56:40.106Z,7.90
2018-01-05T09:57:43.053Z,8.04
2018-01-05T09:58:46.021Z,7.97
2018-01-05T09:59:48.970Z,7.94
2018-01-05T10:00:52.372Z,8.07
2018-01-05T10:01:55.317Z,7.99
2018-01-05T10:02:58.231Z,8.04
2018-01-05T10:04:02.067Z,7.91
2018-01-05T10:05:04.990Z,8.17
2018-01-05T10:06:07.914Z,7.98
2018-01-05T10:07:11.063Z,7.99
2018-01-05T10:08:13.906Z,8.08
2018-01-05T10:09:16.785Z,7.97
2018-01-05T10:10:19.717Z,8.26
2018-01-05T10:11:22.643Z,8.22
2018-01-05T10:12:25.979Z,8.40
2018-01-05T10:13:29.294Z,8.50
2018-01-05T10:14:32.271Z,8.88
2018-01-05T10:15:35.267Z,9.00
2018-01-05T10:16:38.265Z,8.44
2018-01-05T10:17:41.329Z,8.29
2018-01-05T10:18:44.316Z,8.39
2018-01-05T10:19:47.670Z,8.28
2018-01-05T10:20:50.638Z,8.50
2018-01-05T10:21:53.655Z,8.26
2018-01-05T10:22:56.638Z,8.42
2018-01-05T10:23:59.575Z,8.53
2018-01-05T10:25:02.544Z,8.76
2018-01-05T10:26:05.755Z,8.49
2018-01-05T10:27:08.707Z,8.17
2018-01-05T10:28:11.709Z,8.53
2018-01-05T10:29:14.741Z,8.71
2018-01-05T10:30:17.704Z,8.88
2018-01-05T10:31:20.692Z,9.05
2018-01-05T10:32:24.012Z,9.15
2018-01-05T10:33:26.938Z,9.20
2018-01-05T10:34:29.890Z,8.70
2018-01-05T10:35:32.818Z,8.85
2018-01-05T10:36:35.749Z,9.09
2018-01-05T10:37:38.694Z,8.52
2018-01-05T10:38:42.094Z,8.55
2018-01-05T10:39:45.043Z,9.01
2018-01-05T10:40:48.026Z,9.08
2018-01-05T10:41:52.442Z,8.69
2018-01-05T10:42:55.440Z,8.71
2018-01-05T10:43:58.370Z,8.92
2018-01-05T10:45:01.631Z,8.55
2018-01-05T10:46:04.605Z,8.68
2018-01-05T10:47:07.514Z,8.58
2018-01-05T10:48:10.454Z,8.54
2018-01-05T10:49:13.436Z,8.58
2018-01-05T10:50:16.430Z,8.67
2018-01-05T10:51:25.127Z,8.46
2018-01-05T10:52:37.366Z,8.56
2018-01-05T10:53:40.334Z,8.63
2018-01-05T10:54:43.444Z,8.66
2018-01-05T10:55:46.403Z,8.86
2018-01-05T10:56:49.313Z,8.86
2018-01-05T10:57:52.776Z,8.68
2018-01-05T10:58:55.834Z,9.25
2018-01-05T10:59:58.743Z,8.85
2018-01-05T11:01:01.665Z,8.93
2018-01-05T11:02:04.623Z,9.36
2018-01-05T11:03:07.674Z,9.60
2018-01-05T11:04:10.872Z,9.56
2018-01-05T11:05:13.794Z,9.15
2018-01-05T11:06:16.764Z,8.97
2018-01-05T11:07:19.721Z,9.01
2018-01-05T11:08:22.682Z,9.22
2018-01-05T11:09:25.586Z,9.02
2018-01-05T11:10:28.861Z,9.22
2018-01-05T11:11:31.734Z,9.98
2018-01-05T11:12:35.154Z,9.44
2018-01-05T11:13:38.164Z,8.83
2018-01-05T11:14:41.616Z,9.29
2018-01-05T11:15:44.543Z,8.83
2018-01-05T11:16:48.907Z,9.23
2018-01-05T11:17:51.889Z,8.88
2018-01-05T11:18:54.872Z,8.79
2018-01-05T11:19:57.835Z,9.11
2018-01-05T11:21:00.751Z,9.04
2018-01-05T11:22:03.710Z,9.40
2018-01-05T11:23:06.942Z,8.76
2018-01-05T11:24:09.892Z,8.94
2018-01-05T11:25:12.851Z,8.63
2018-01-05T11:26:15.817Z,9.10
2018-01-05T11:27:18.773Z,8.71
2018-01-05T11:28:21.706Z,8.77
2018-01-05T11:29:24.930Z,8.98
2018-01-05T11:30:27.936Z,8.72
2018-01-05T11:31:31.112Z,8.51
2018-01-05T11:32:34.309Z,8.52
2018-01-05T11:33:37.336Z,8.48
2018-01-05T11:34:40.352Z,8.57
2018-01-05T11:35:43.657Z,8.65
2018-01-05T11:36:46.711Z,8.71
2018-01-05T11:37:49.683Z,8.89
2018-01-05T11:38:52.793Z,8.57
2018-01-05T11:39:56.042Z,8.94
2018-01-05T11:40:59.110Z,8.68
2018-01-05T11:42:02.528Z,8.58
2018-01-05T11:43:05.443Z,8.67
2018-01-05T11:44:08.408Z,8.90
2018-01-05T11:45:11.437Z,9.05
2018-01-05T11:46:14.456Z,8.77
2018-01-05T11:47:17.382Z,8.63
2018-01-05T11:48:21.719Z,9.06
2018-01-05T11:49:24.642Z,8.87
2018-01-05T11:50:27.555Z,8.98
2018-01-05T11:51:30.431Z,8.67
2018-01-05T11:52:33.397Z,8.72
2018-01-05T11:53:36.301Z,9.00
2018-01-05T11:54:39.576Z,8.95
2018-01-05T11:55:42.501Z,9.07
2018-01-05T11:56:45.475Z,8.84
2018-01-05T11:57:48.381Z,9.04
2018-01-05T11:58:51.335Z,8.87
2018-01-05T11:59:54.324Z,8.94
2018-01-05T12:00:57.561Z,8.71
2018-01-05T12:02:00.591Z,8.76
2018-01-05T12:03:03.703Z,8.69
2018-01-05T12:04:06.691Z,8.72
2018-01-05T12:05:09.718Z,8.70
2018-01-05T12:06:12.743Z,8.72
2018-01-05T12:07:16.001Z,8.69
2018-01-05T12:08:18.919Z,9.02
2018-01-05T12:09:21.917Z,8.90
2018-01-05T12:10:24.780Z,8.66
2018-01-05T12:11:27.744Z,8.81
2018-01-05T12:12:30.755Z,8.82
2018-01-05T12:13:34.499Z,8.53
2018-01-05T12:14:37.399Z,8.84
2018-01-05T12:15:40.332Z,8.90
2018-01-05T12:16:43.333Z,8.87
2018-01-05T12:17:46.302Z,8.95
2018-01-05T12:18:49.243Z,8.77
2018-01-05T12:19:52.601Z,8.86
2018-01-05T12:20:55.558Z,8.73
2018-01-05T12:21:58.511Z,8.62
2018-01-05T12:23:01.451Z,8.80
2018-01-05T12:24:07.400Z,8.89
2018-01-05T12:25:10.387Z,8.94
2018-01-05T12:26:13.632Z,8.85
2018-01-05T12:27:16.581Z,8.97
2018-01-05T12:28:19.530Z,8.76
2018-01-05T12:29:22.543Z,8.56
2018-01-05T12:30:25.479Z,8.72
2018-01-05T12:31:28.442Z,8.80
2018-01-05T12:32:31.783Z,8.96
2018-01-05T12:33:34.706Z,8.76
2018-01-05T12:34:37.721Z,8.67
2018-01-05T12:35:40.678Z,8.62
2018-01-05T12:36:43.668Z,8.71
2018-01-05T12:37:46.650Z,8.78
2018-01-05T12:38:49.891Z,9.04
2018-01-05T12:39:52.860Z,9.07
2018-01-05T12:40:55.802Z,8.90
2018-01-05T12:41:58.738Z,8.76
2018-01-05T12:43:01.684Z,8.89
2018-01-05T12:44:04.594Z,8.73
2018-01-05T12:45:07.856Z,8.75
2018-01-05T12:46:10.814Z,8.65
2018-01-05T12:47:14.047Z,8.61
2018-01-05T12:48:16.994Z,8.75
2018-01-05T12:49:20.138Z,8.52
2018-01-05T12:50:23.109Z,8.69
2018-01-05T12:51:26.429Z,8.65
2018-01-05T12:52:29.362Z,8.87
2018-01-05T12:53:32.369Z,8.83
2018-01-05T12:54:35.412Z,8.60
2018-01-05T12:55:38.580Z,8.76
2018-01-05T12:56:41.388Z,8.80
2018-01-05T12:57:44.543Z,8.71
2018-01-05T12:58:47.388Z,8.76
2018-01-05T12:59:50.312Z,9.09
2018-01-05T13:00:53.283Z,8.94
2018-01-05T13:01:56.212Z,8.99
2018-01-05T13:02:59.281Z,8.84
2018-01-05T13:04:02.730Z,8.76
2018-01-05T13:05:05.672Z,8.97
2018-01-05T13:06:08.820Z,9.07
2018-01-05T13:07:11.779Z,9.17
2018-01-05T13:08:14.733Z,8.95
2018-01-05T13:09:17.792Z,8.95
2018-01-05T13:10:21.212Z,8.97
2018-01-05T13:11:24.160Z,9.02
2018-01-05T13:12:27.087Z,8.69
2018-01-05T13:13:30.065Z,8.97
2018-01-05T13:14:33.003Z,8.80
2018-01-05T13:15:35.928Z,8.82
2018-01-05T13:16:39.373Z,8.67
2018-01-05T13:17:42.278Z,8.93
2018-01-05T13:18:45.209Z,9.17
2018-01-05T13:19:48.223Z,8.85
2018-01-05T13:20:51.115Z,8.95
2018-01-05T13:21:54.016Z,8.73
2018-01-05T13:22:57.279Z,8.81
2018-01-05T13:24:00.248Z,8.60
2018-01-05T13:25:03.254Z,8.81
2018-01-05T13:26:06.429Z,8.72
2018-01-05T13:27:09.371Z,8.60
2018-01-05T13:28:12.290Z,8.74
2018-01-05T13:29:15.518Z,8.66
2018-01-05T13:30:18.546Z,9.04
2018-01-05T13:31:21.530Z,8.64
2018-01-05T13:32:24.456Z,8.62
2018-01-05T13:33:27.410Z,8.81
2018-01-05T13:34:30.293Z,8.54
2018-01-05T13:35:33.523Z,8.55
2018-01-05T13:36:36.451Z,8.54
2018-01-05T13:37:40.530Z,8.91
2018-01-05T13:38:43.438Z,8.55
2018-01-05T13:39:46.432Z,8.49
2018-01-05T13:40:49.370Z,8.46
2018-01-05T13:41:52.693Z,8.49
2018-01-05T13:42:55.746Z,8.59
2018-01-05T13:43:58.706Z,8.54
2018-01-05T13:45:01.774Z,8.72
2018-01-05T13:46:04.814Z,8.72
2018-01-05T13:47:07.882Z,8.52
2018-01-05T13:48:10.871Z,8.54
2018-01-05T13:49:13.869Z,8.71
2018-01-05T13:50:16.831Z,8.59
2018-01-05T13:51:19.838Z,8.40
2018-01-05T13:52:22.711Z,8.80
2018-01-05T13:53:26.113Z,8.58
2018-01-05T13:54:29.007Z,8.64
2018-01-05T13:55:31.909Z,8.50
2018-01-05T13:56:34.922Z,8.65
2018-01-05T13:57:37.882Z,8.60
2018-01-05T13:58:40.863Z,8.56
2018-01-05T13:59:44.319Z,8.64